Overview Statistics Trail Chart Weather Telemetry Raw packets
 

This is the latest recevied weather packets stored in our database for station/object KJ5FA-10. If no packets are shown the sender has not sent any weather packets the latest 10 day(s).

<< 23 24 25 26 27 28 29 >>
Time Temp. Humidity Pressure Rain* Wind** Luminosity Snow
1787878483 31.11° C 51% 1014.2 hPa 0 mm - - -
1787877583 31.67° C 50% 1013.8 hPa 0 mm - - -
1787876683 32.22° C 46% 1014 hPa 0 mm - - -
1787875785 32.78° C 46% 1013.9 hPa 0 mm - - -
1787874885 32.78° C 44% 1014 hPa 0 mm - - -
1787873983 32.78° C 45% 1014.2 hPa 0 mm - - -
1787873083 33.33° C 43% 1014.6 hPa 0 mm - - -
1787872183 33.33° C 43% 1014.4 hPa 0 mm - - -
1787870384 34.44° C 44% 1014.5 hPa 0 mm - - -
1787869484 33.89° C 43% 1014.7 hPa 0 mm - - -
1787868584 34.44° C 45% 1014.8 hPa 0 mm - - -
1787866785 34.44° C 44% 1015 hPa 0 mm - - -
1787865884 35.56° C 42% 1015.1 hPa 0 mm - - -
1787864984 34.44° C 44% 1015 hPa 0 mm - - -
1787864084 35° C 42% 1015.6 hPa 0 mm - - -
1787863183 35° C 42% 1015.6 hPa 0 mm - - -
1787862283 34.44° C 45% 1015.6 hPa 0 mm - - -
1787861384 34.44° C 46% 1015.7 hPa 0 mm - - -
1787860483 35° C 46% 1015.9 hPa 0 mm - - -
1787859584 33.89° C 49% 1016.3 hPa 0 mm - - -
1787858684 33.89° C 46% 1016.2 hPa 0 mm - - -
1787857783 34.44° C 45% 1016.2 hPa 0 mm - - -
1787853286 32.22° C 51% 1017.2 hPa 0 mm - - -
1787851485 32.22° C 53% 1017.3 hPa 0 mm - - -
1787850584 31.11° C 54% 1017.5 hPa 0 mm - - -

* Rain latest hour (hover to see other rain measurements)
** Current wind speed in m/s (hover to see current wind gust speed)